Abu Dhabi, UAE

7:40 AM GST on July 28, 2016 (GMT +0400)
Abu Dhabi International | | Change Station

Elev 89 ft 24.43 °N, 54.65 °E | Updated 40 minutes ago

Clear
Clear
86 °F
Feels Like 90 °F
N
17
Wind Variable Wind from SSE

Today
High -- | Low -- °F
--% Chance of Precip.
Yesterday
High -- | Low -- °F
Precip. -- in
Pressure 29.53 in
Visibility 3.7 miles
Clouds
Heat Index 90 °F
Dew Point 70 °F
Humidity 58%
Rainfall 0.00 in
Snow Depth Not available.
5:48 AM 7:07 PM
Last Quarter, 36% visible
METAR OMAA 280300Z 15015KT 6000 NSC 30/21 Q1000 NOSIG
Pressure 29.53 in
Visibility 3.7 miles
Clouds
Heat Index 90 °F
Dew Point 70 °F
Humidity 58%
Rainfall 0.00 in
Snow Depth Not available.
5:48 AM 7:07 PM
Last Quarter, 36% visible
METAR OMAA 280300Z 15015KT 6000 NSC 30/21 Q1000 NOSIG

10-Day Weather Forecast

No radar image for this location.
×

Almanac

Astronomy

Jul. 28, 2016 Rise Set
Actual Time
Civil Twilight
Nautical Twilight
Astronomical Twilight
Moon
Length of Visible Light
Length of Day
Tomorrow will be .
, % of the Moon is Illuminated

Today's Extremes

Country Highs Country Lows

Community

WunderPhotos

Upload Photos

1,928,037 photos uploaded!

WunderBlog® & News

Nearby

Air Quality

  Air Quality AQ Index Pollutant
Not available.

Snow Depth

Station Depth Elevation

Earthquake Activity

City Distance Mag. Time & Date
Minimum magnitude displayed is 2.5.

Coastal Water Temperatures

Place Temperature

Stations

Nearby Weather Stations

Station Location Temp. Windchill Dew Point Humidity Wind Precip. Elev Updated Type